sensor_id;sensor_type;location;lat;lon;timestamp;temperature;humidity
23271;DHT22;11804;51.118;17.058;2023-07-09T00:01:35;21.10;90.40
23271;DHT22;11804;51.118;17.058;2023-07-09T00:04:04;21.10;92.10
23271;DHT22;11804;51.118;17.058;2023-07-09T00:06:31;20.70;95.50
23271;DHT22;11804;51.118;17.058;2023-07-09T00:08:59;20.70;97.00
23271;DHT22;11804;51.118;17.058;2023-07-09T00:11:26;20.60;99.00
23271;DHT22;11804;51.118;17.058;2023-07-09T00:13:54;20.40;99.90
23271;DHT22;11804;51.118;17.058;2023-07-09T00:16:24;20.30;99.90
23271;DHT22;11804;51.118;17.058;2023-07-09T00:18:52;20.10;99.90
23271;DHT22;11804;51.118;17.058;2023-07-09T00:21:21;20.00;99.90
23271;DHT22;11804;51.118;17.058;2023-07-09T00:23:49;20.20;99.90
23271;DHT22;11804;51.118;17.058;2023-07-09T00:26:18;20.40;99.90
23271;DHT22;11804;51.118;17.058;2023-07-09T00:28:49;20.40;99.90
23271;DHT22;11804;51.118;17.058;2023-07-09T00:31:17;20.50;99.90
23271;DHT22;11804;51.118;17.058;2023-07-09T00:33:46;20.40;99.90
23271;DHT22;11804;51.118;17.058;2023-07-09T00:36:16;20.40;99.90
23271;DHT22;11804;51.118;17.058;2023-07-09T00:38:44;20.50;99.90
23271;DHT22;11804;51.118;17.058;2023-07-09T00:41:17;20.40;99.90
23271;DHT22;11804;51.118;17.058;2023-07-09T00:43:46;20.40;99.90
23271;DHT22;11804;51.118;17.058;2023-07-09T00:48:58;20.60;97.10
23271;DHT22;11804;51.118;17.058;2023-07-09T00:51:28;20.60;96.90
23271;DHT22;11804;51.118;17.058;2023-07-09T00:53:58;20.60;97.30
23271;DHT22;11804;51.118;17.058;2023-07-09T00:56:30;20.40;96.80
23271;DHT22;11804;51.118;17.058;2023-07-09T00:58:59;20.30;97.70
23271;DHT22;11804;51.118;17.058;2023-07-09T01:01:29;20.10;99.70
23271;DHT22;11804;51.118;17.058;2023-07-09T01:03:57;19.90;99.90
23271;DHT22;11804;51.118;17.058;2023-07-09T01:06:44;20.00;99.90
23271;DHT22;11804;51.118;17.058;2023-07-09T01:09:12;20.20;99.90
23271;DHT22;11804;51.118;17.058;2023-07-09T01:11:40;20.10;99.90
23271;DHT22;11804;51.118;17.058;2023-07-09T01:14:10;19.90;99.90
23271;DHT22;11804;51.118;17.058;2023-07-09T01:16:43;20.00;99.90
23271;DHT22;11804;51.118;17.058;2023-07-09T01:19:09;20.10;99.90
23271;DHT22;11804;51.118;17.058;2023-07-09T01:21:38;20.20;99.90
23271;DHT22;11804;51.118;17.058;2023-07-09T01:24:14;20.20;99.90
23271;DHT22;11804;51.118;17.058;2023-07-09T01:26:42;20.10;99.90
23271;DHT22;11804;51.118;17.058;2023-07-09T01:29:10;20.10;99.90
23271;DHT22;11804;51.118;17.058;2023-07-09T01:31:38;20.20;99.70
23271;DHT22;11804;51.118;17.058;2023-07-09T01:34:06;20.30;99.20
23271;DHT22;11804;51.118;17.058;2023-07-09T01:36:34;20.30;99.00
23271;DHT22;11804;51.118;17.058;2023-07-09T01:39:03;20.30;99.00
23271;DHT22;11804;51.118;17.058;2023-07-09T01:41:31;20.40;97.90
23271;DHT22;11804;51.118;17.058;2023-07-09T01:44:00;20.30;97.60
23271;DHT22;11804;51.118;17.058;2023-07-09T01:46:28;20.00;99.40
23271;DHT22;11804;51.118;17.058;2023-07-09T01:48:56;20.00;99.90
23271;DHT22;11804;51.118;17.058;2023-07-09T01:51:24;20.00;99.90
23271;DHT22;11804;51.118;17.058;2023-07-09T01:53:53;19.90;99.90
23271;DHT22;11804;51.118;17.058;2023-07-09T01:56:21;19.70;99.90
23271;DHT22;11804;51.118;17.058;2023-07-09T01:58:51;19.70;99.90
23271;DHT22;11804;51.118;17.058;2023-07-09T02:01:18;19.60;99.90
23271;DHT22;11804;51.118;17.058;2023-07-09T02:03:46;19.70;99.90
23271;DHT22;11804;51.118;17.058;2023-07-09T02:06:14;19.60;99.90
23271;DHT22;11804;51.118;17.058;2023-07-09T02:08:41;19.30;99.90
23271;DHT22;11804;51.118;17.058;2023-07-09T02:11:09;19.30;99.90
23271;DHT22;11804;51.118;17.058;2023-07-09T02:13:36;19.30;99.90
23271;DHT22;11804;51.118;17.058;2023-07-09T02:16:04;19.50;99.90
23271;DHT22;11804;51.118;17.058;2023-07-09T02:18:32;19.70;99.90
23271;DHT22;11804;51.118;17.058;2023-07-09T02:21:00;19.70;99.90
23271;DHT22;11804;51.118;17.058;2023-07-09T02:23:28;19.60;99.90
23271;DHT22;11804;51.118;17.058;2023-07-09T02:25:56;19.20;99.90
23271;DHT22;11804;51.118;17.058;2023-07-09T02:28:24;18.60;99.90
23271;DHT22;11804;51.118;17.058;2023-07-09T02:30:51;18.50;99.90
23271;DHT22;11804;51.118;17.058;2023-07-09T02:33:19;18.40;99.90
23271;DHT22;11804;51.118;17.058;2023-07-09T02:35:47;18.20;99.90
23271;DHT22;11804;51.118;17.058;2023-07-09T02:38:15;18.30;99.90
23271;DHT22;11804;51.118;17.058;2023-07-09T02:40:43;18.60;99.90
23271;DHT22;11804;51.118;17.058;2023-07-09T02:43:10;18.90;99.90
23271;DHT22;11804;51.118;17.058;2023-07-09T02:45:38;19.20;99.90
23271;DHT22;11804;51.118;17.058;2023-07-09T02:48:06;19.20;99.90
23271;DHT22;11804;51.118;17.058;2023-07-09T02:50:33;19.10;99.90
23271;DHT22;11804;51.118;17.058;2023-07-09T02:53:01;19.20;99.90
23271;DHT22;11804;51.118;17.058;2023-07-09T02:55:28;19.20;99.90
23271;DHT22;11804;51.118;17.058;2023-07-09T02:57:56;19.20;99.90
23271;DHT22;11804;51.118;17.058;2023-07-09T03:00:24;18.80;99.90
23271;DHT22;11804;51.118;17.058;2023-07-09T03:02:51;18.50;99.90
23271;DHT22;11804;51.118;17.058;2023-07-09T03:05:19;18.40;99.90
23271;DHT22;11804;51.118;17.058;2023-07-09T03:07:46;18.70;99.90
23271;DHT22;11804;51.118;17.058;2023-07-09T03:10:14;19.10;99.90
23271;DHT22;11804;51.118;17.058;2023-07-09T03:12:42;19.30;99.90
23271;DHT22;11804;51.118;17.058;2023-07-09T03:15:09;19.40;99.90
23271;DHT22;11804;51.118;17.058;2023-07-09T03:17:37;19.00;99.90
23271;DHT22;11804;51.118;17.058;2023-07-09T03:20:06;18.80;99.90
23271;DHT22;11804;51.118;17.058;2023-07-09T03:22:34;18.90;99.90
23271;DHT22;11804;51.118;17.058;2023-07-09T03:25:02;19.20;99.90
23271;DHT22;11804;51.118;17.058;2023-07-09T03:27:29;19.50;99.90
23271;DHT22;11804;51.118;17.058;2023-07-09T03:29:57;19.50;99.90
23271;DHT22;11804;51.118;17.058;2023-07-09T03:32:24;20.20;99.90
23271;DHT22;11804;51.118;17.058;2023-07-09T03:34:52;20.60;98.90
23271;DHT22;11804;51.118;17.058;2023-07-09T03:37:20;21.00;95.30
23271;DHT22;11804;51.118;17.058;2023-07-09T03:39:47;21.50;91.90
23271;DHT22;11804;51.118;17.058;2023-07-09T03:42:15;22.00;88.00
23271;DHT22;11804;51.118;17.058;2023-07-09T03:44:42;22.40;84.30
23271;DHT22;11804;51.118;17.058;2023-07-09T03:47:10;23.00;79.50
23271;DHT22;11804;51.118;17.058;2023-07-09T03:49:38;23.90;73.70
23271;DHT22;11804;51.118;17.058;2023-07-09T03:52:07;24.20;69.90
23271;DHT22;11804;51.118;17.058;2023-07-09T03:54:35;24.40;68.10
23271;DHT22;11804;51.118;17.058;2023-07-09T03:57:03;24.90;65.60
23271;DHT22;11804;51.118;17.058;2023-07-09T03:59:33;25.10;64.30
23271;DHT22;11804;51.118;17.058;2023-07-09T04:02:01;24.90;64.10
23271;DHT22;11804;51.118;17.058;2023-07-09T04:04:29;25.00;62.70
23271;DHT22;11804;51.118;17.058;2023-07-09T04:06:57;25.80;59.50
23271;DHT22;11804;51.118;17.058;2023-07-09T04:09:24;25.70;59.70
23271;DHT22;11804;51.118;17.058;2023-07-09T04:11:52;26.20;57.90
23271;DHT22;11804;51.118;17.058;2023-07-09T04:14:20;26.70;56.10
23271;DHT22;11804;51.118;17.058;2023-07-09T04:16:47;26.60;55.70
23271;DHT22;11804;51.118;17.058;2023-07-09T04:19:15;25.90;56.10
23271;DHT22;11804;51.118;17.058;2023-07-09T04:21:42;26.00;57.10
23271;DHT22;11804;51.118;17.058;2023-07-09T04:24:10;27.40;55.00
23271;DHT22;11804;51.118;17.058;2023-07-09T04:26:37;27.40;54.10
23271;DHT22;11804;51.118;17.058;2023-07-09T04:29:06;27.70;53.70
23271;DHT22;11804;51.118;17.058;2023-07-09T04:31:36;27.70;52.50
23271;DHT22;11804;51.118;17.058;2023-07-09T04:34:05;27.60;53.50
23271;DHT22;11804;51.118;17.058;2023-07-09T04:36:33;28.40;52.20
23271;DHT22;11804;51.118;17.058;2023-07-09T04:39:01;29.00;49.90
23271;DHT22;11804;51.118;17.058;2023-07-09T04:41:30;28.70;50.40
23271;DHT22;11804;51.118;17.058;2023-07-09T04:43:58;29.40;50.00
23271;DHT22;11804;51.118;17.058;2023-07-09T04:46:25;28.60;51.80
23271;DHT22;11804;51.118;17.058;2023-07-09T04:48:53;28.60;51.70
23271;DHT22;11804;51.118;17.058;2023-07-09T04:51:22;28.40;51.80
23271;DHT22;11804;51.118;17.058;2023-07-09T04:53:50;28.80;50.80
23271;DHT22;11804;51.118;17.058;2023-07-09T04:56:19;29.00;49.50
23271;DHT22;11804;51.118;17.058;2023-07-09T04:58:47;29.10;49.50
23271;DHT22;11804;51.118;17.058;2023-07-09T05:01:15;29.40;48.30
23271;DHT22;11804;51.118;17.058;2023-07-09T05:03:42;28.80;49.30
23271;DHT22;11804;51.118;17.058;2023-07-09T05:06:10;29.10;48.90
23271;DHT22;11804;51.118;17.058;2023-07-09T05:08:37;30.50;46.30
23271;DHT22;11804;51.118;17.058;2023-07-09T05:11:05;31.50;43.30
23271;DHT22;11804;51.118;17.058;2023-07-09T05:13:33;31.10;44.20
23271;DHT22;11804;51.118;17.058;2023-07-09T05:16:00;31.90;42.90
23271;DHT22;11804;51.118;17.058;2023-07-09T05:18:28;32.10;41.00
23271;DHT22;11804;51.118;17.058;2023-07-09T05:20:55;31.90;41.60
23271;DHT22;11804;51.118;17.058;2023-07-09T05:23:25;32.10;40.30
23271;DHT22;11804;51.118;17.058;2023-07-09T05:26:02;32.00;40.70
23271;DHT22;11804;51.118;17.058;2023-07-09T05:28:26;31.70;41.50
23271;DHT22;11804;51.118;17.058;2023-07-09T05:30:54;31.60;41.70
23271;DHT22;11804;51.118;17.058;2023-07-09T05:33:22;32.70;39.70
23271;DHT22;11804;51.118;17.058;2023-07-09T05:35:50;32.90;38.60
23271;DHT22;11804;51.118;17.058;2023-07-09T05:38:18;32.40;39.70
23271;DHT22;11804;51.118;17.058;2023-07-09T05:40:46;32.60;39.60
23271;DHT22;11804;51.118;17.058;2023-07-09T05:43:15;33.00;39.30
23271;DHT22;11804;51.118;17.058;2023-07-09T05:45:43;33.40;38.30
23271;DHT22;11804;51.118;17.058;2023-07-09T05:48:10;33.40;38.00
23271;DHT22;11804;51.118;17.058;2023-07-09T05:50:38;34.10;37.90
23271;DHT22;11804;51.118;17.058;2023-07-09T05:53:05;33.80;38.00
23271;DHT22;11804;51.118;17.058;2023-07-09T05:55:33;34.50;36.90
23271;DHT22;11804;51.118;17.058;2023-07-09T05:58:01;34.20;36.00
23271;DHT22;11804;51.118;17.058;2023-07-09T06:00:29;34.10;36.00
23271;DHT22;11804;51.118;17.058;2023-07-09T06:02:57;34.20;35.50
23271;DHT22;11804;51.118;17.058;2023-07-09T06:05:25;34.70;35.40
23271;DHT22;11804;51.118;17.058;2023-07-09T06:07:53;35.60;34.20
23271;DHT22;11804;51.118;17.058;2023-07-09T06:10:21;35.30;33.60
23271;DHT22;11804;51.118;17.058;2023-07-09T06:12:49;35.00;34.10
23271;DHT22;11804;51.118;17.058;2023-07-09T06:15:17;34.70;34.50
23271;DHT22;11804;51.118;17.058;2023-07-09T06:17:44;35.00;34.00
23271;DHT22;11804;51.118;17.058;2023-07-09T06:20:12;35.20;33.90
23271;DHT22;11804;51.118;17.058;2023-07-09T06:22:39;35.40;33.40
23271;DHT22;11804;51.118;17.058;2023-07-09T06:25:09;35.20;33.40
23271;DHT22;11804;51.118;17.058;2023-07-09T06:27:36;35.00;33.20
23271;DHT22;11804;51.118;17.058;2023-07-09T06:30:05;34.80;33.50
23271;DHT22;11804;51.118;17.058;2023-07-09T06:32:33;35.50;33.00
23271;DHT22;11804;51.118;17.058;2023-07-09T06:35:00;35.60;32.80
23271;DHT22;11804;51.118;17.058;2023-07-09T06:37:28;35.90;32.40
23271;DHT22;11804;51.118;17.058;2023-07-09T06:39:55;36.20;30.80
23271;DHT22;11804;51.118;17.058;2023-07-09T06:42:23;36.20;30.90
23271;DHT22;11804;51.118;17.058;2023-07-09T06:44:50;36.30;30.90
23271;DHT22;11804;51.118;17.058;2023-07-09T06:47:18;36.30;31.10
23271;DHT22;11804;51.118;17.058;2023-07-09T06:49:46;36.30;30.80
23271;DHT22;11804;51.118;17.058;2023-07-09T06:52:14;37.00;31.20
23271;DHT22;11804;51.118;17.058;2023-07-09T06:54:42;36.80;30.60
23271;DHT22;11804;51.118;17.058;2023-07-09T06:57:10;37.60;30.40
23271;DHT22;11804;51.118;17.058;2023-07-09T06:59:37;37.50;30.00
23271;DHT22;11804;51.118;17.058;2023-07-09T07:02:05;37.20;31.30
23271;DHT22;11804;51.118;17.058;2023-07-09T07:04:33;37.10;30.80
23271;DHT22;11804;51.118;17.058;2023-07-09T07:07:01;37.30;30.60
23271;DHT22;11804;51.118;17.058;2023-07-09T07:09:28;38.30;29.20
23271;DHT22;11804;51.118;17.058;2023-07-09T07:11:56;37.10;31.00
23271;DHT22;11804;51.118;17.058;2023-07-09T07:14:23;37.00;30.60
23271;DHT22;11804;51.118;17.058;2023-07-09T07:16:51;36.70;31.00
23271;DHT22;11804;51.118;17.058;2023-07-09T07:19:19;36.70;30.80
23271;DHT22;11804;51.118;17.058;2023-07-09T07:21:47;37.10;30.20
23271;DHT22;11804;51.118;17.058;2023-07-09T07:24:14;37.60;29.60
23271;DHT22;11804;51.118;17.058;2023-07-09T07:26:42;37.40;30.20
23271;DHT22;11804;51.118;17.058;2023-07-09T07:29:09;37.10;29.70
23271;DHT22;11804;51.118;17.058;2023-07-09T07:31:37;37.80;29.30
23271;DHT22;11804;51.118;17.058;2023-07-09T07:34:05;38.20;29.40
23271;DHT22;11804;51.118;17.058;2023-07-09T07:36:32;38.30;29.30
23271;DHT22;11804;51.118;17.058;2023-07-09T07:39:00;38.20;29.30
23271;DHT22;11804;51.118;17.058;2023-07-09T07:41:27;38.10;29.20
23271;DHT22;11804;51.118;17.058;2023-07-09T07:43:55;39.30;27.80
23271;DHT22;11804;51.118;17.058;2023-07-09T07:46:22;39.30;27.60
23271;DHT22;11804;51.118;17.058;2023-07-09T07:48:50;40.80;26.30
23271;DHT22;11804;51.118;17.058;2023-07-09T07:51:19;40.80;26.50
23271;DHT22;11804;51.118;17.058;2023-07-09T07:53:48;39.90;27.10
23271;DHT22;11804;51.118;17.058;2023-07-09T07:56:16;41.00;25.80
23271;DHT22;11804;51.118;17.058;2023-07-09T07:58:44;40.80;26.10
23271;DHT22;11804;51.118;17.058;2023-07-09T08:01:11;40.40;26.40
23271;DHT22;11804;51.118;17.058;2023-07-09T08:03:39;39.00;28.10
23271;DHT22;11804;51.118;17.058;2023-07-09T08:06:06;38.10;28.80
23271;DHT22;11804;51.118;17.058;2023-07-09T08:08:34;38.00;29.50
23271;DHT22;11804;51.118;17.058;2023-07-09T08:11:04;38.70;28.80
23271;DHT22;11804;51.118;17.058;2023-07-09T08:13:35;38.30;29.60
23271;DHT22;11804;51.118;17.058;2023-07-09T08:16:05;37.90;29.30
23271;DHT22;11804;51.118;17.058;2023-07-09T08:18:34;37.60;29.90
23271;DHT22;11804;51.118;17.058;2023-07-09T08:21:01;38.60;28.90
23271;DHT22;11804;51.118;17.058;2023-07-09T08:23:30;39.00;28.50
23271;DHT22;11804;51.118;17.058;2023-07-09T08:26:00;38.40;29.10
23271;DHT22;11804;51.118;17.058;2023-07-09T08:28:33;38.00;29.40
23271;DHT22;11804;51.118;17.058;2023-07-09T08:31:03;37.70;29.50
23271;DHT22;11804;51.118;17.058;2023-07-09T08:33:31;37.70;28.90
23271;DHT22;11804;51.118;17.058;2023-07-09T08:36:00;38.10;26.70
23271;DHT22;11804;51.118;17.058;2023-07-09T08:38:27;37.50;27.50
23271;DHT22;11804;51.118;17.058;2023-07-09T08:41:32;37.70;27.20
23271;DHT22;11804;51.118;17.058;2023-07-09T08:47:10;38.50;27.80
23271;DHT22;11804;51.118;17.058;2023-07-09T08:49:40;38.60;27.60
23271;DHT22;11804;51.118;17.058;2023-07-09T08:52:45;39.10;27.10
23271;DHT22;11804;51.118;17.058;2023-07-09T08:54:48;39.00;26.90
23271;DHT22;11804;51.118;17.058;2023-07-09T08:57:22;38.30;27.30
23271;DHT22;11804;51.118;17.058;2023-07-09T09:00:02;38.20;27.40
23271;DHT22;11804;51.118;17.058;2023-07-09T09:02:54;38.00;27.90
23271;DHT22;11804;51.118;17.058;2023-07-09T09:05:23;38.20;28.00
23271;DHT22;11804;51.118;17.058;2023-07-09T09:07:57;38.10;27.40
23271;DHT22;11804;51.118;17.058;2023-07-09T09:10:42;38.10;27.80
23271;DHT22;11804;51.118;17.058;2023-07-09T09:13:11;38.50;27.30
23271;DHT22;11804;51.118;17.058;2023-07-09T09:15:42;38.50;26.90
23271;DHT22;11804;51.118;17.058;2023-07-09T09:18:23;38.20;27.50
23271;DHT22;11804;51.118;17.058;2023-07-09T09:21:36;38.60;27.20
23271;DHT22;11804;51.118;17.058;2023-07-09T09:23:30;38.90;25.10
23271;DHT22;11804;51.118;17.058;2023-07-09T09:25:57;38.50;25.20
23271;DHT22;11804;51.118;17.058;2023-07-09T09:28:27;38.70;25.40
23271;DHT22;11804;51.118;17.058;2023-07-09T09:30:55;38.60;25.80
23271;DHT22;11804;51.118;17.058;2023-07-09T09:33:23;38.50;24.10
23271;DHT22;11804;51.118;17.058;2023-07-09T09:36:00;37.60;25.00
23271;DHT22;11804;51.118;17.058;2023-07-09T09:38:22;37.60;25.60
23271;DHT22;11804;51.118;17.058;2023-07-09T09:40:50;37.90;25.30
23271;DHT22;11804;51.118;17.058;2023-07-09T09:43:20;37.90;25.50
23271;DHT22;11804;51.118;17.058;2023-07-09T09:45:50;37.90;24.70
23271;DHT22;11804;51.118;17.058;2023-07-09T09:48:30;37.50;24.80
23271;DHT22;11804;51.118;17.058;2023-07-09T09:50:59;37.10;24.70
23271;DHT22;11804;51.118;17.058;2023-07-09T09:53:34;37.40;24.50
23271;DHT22;11804;51.118;17.058;2023-07-09T09:56:03;37.50;24.40
23271;DHT22;11804;51.118;17.058;2023-07-09T09:58:34;38.80;23.30
23271;DHT22;11804;51.118;17.058;2023-07-09T10:01:02;38.00;24.10
23271;DHT22;11804;51.118;17.058;2023-07-09T10:03:37;37.90;23.50
23271;DHT22;11804;51.118;17.058;2023-07-09T10:06:16;37.90;23.30
23271;DHT22;11804;51.118;17.058;2023-07-09T10:11:39;36.00;24.90
23271;DHT22;11804;51.118;17.058;2023-07-09T10:14:04;36.30;24.20
23271;DHT22;11804;51.118;17.058;2023-07-09T10:16:40;37.30;23.50
23271;DHT22;11804;51.118;17.058;2023-07-09T10:19:59;37.50;23.20
23271;DHT22;11804;51.118;17.058;2023-07-09T10:21:55;36.90;23.40
23271;DHT22;11804;51.118;17.058;2023-07-09T10:24:37;36.40;23.80
23271;DHT22;11804;51.118;17.058;2023-07-09T10:27:27;36.30;24.70
23271;DHT22;11804;51.118;17.058;2023-07-09T10:40:49;36.50;23.60
23271;DHT22;11804;51.118;17.058;2023-07-09T10:43:28;36.20;23.90
23271;DHT22;11804;51.118;17.058;2023-07-09T10:45:53;35.50;24.40
23271;DHT22;11804;51.118;17.058;2023-07-09T10:51:44;35.60;24.50
23271;DHT22;11804;51.118;17.058;2023-07-09T10:53:55;34.70;25.20
23271;DHT22;11804;51.118;17.058;2023-07-09T10:56:25;34.40;25.40
23271;DHT22;11804;51.118;17.058;2023-07-09T11:01:42;34.30;26.20
23271;DHT22;11804;51.118;17.058;2023-07-09T11:07:02;34.10;26.10
23271;DHT22;11804;51.118;17.058;2023-07-09T11:09:34;34.10;26.70
23271;DHT22;11804;51.118;17.058;2023-07-09T11:12:05;34.10;26.20
23271;DHT22;11804;51.118;17.058;2023-07-09T11:14:54;34.10;26.30
23271;DHT22;11804;51.118;17.058;2023-07-09T11:17:22;34.00;26.90
23271;DHT22;11804;51.118;17.058;2023-07-09T11:19:55;33.90;26.40
23271;DHT22;11804;51.118;17.058;2023-07-09T11:27:52;33.10;27.60
23271;DHT22;11804;51.118;17.058;2023-07-09T11:30:24;33.00;27.40
23271;DHT22;11804;51.118;17.058;2023-07-09T11:32:57;32.80;27.70
23271;DHT22;11804;51.118;17.058;2023-07-09T11:35:27;32.50;27.90
23271;DHT22;11804;51.118;17.058;2023-07-09T11:37:56;32.50;27.80
23271;DHT22;11804;51.118;17.058;2023-07-09T11:40:25;32.70;28.40
23271;DHT22;11804;51.118;17.058;2023-07-09T11:42:55;32.80;28.30
23271;DHT22;11804;51.118;17.058;2023-07-09T11:45:31;32.70;28.20
23271;DHT22;11804;51.118;17.058;2023-07-09T11:48:10;32.70;27.80
23271;DHT22;11804;51.118;17.058;2023-07-09T11:50:41;32.60;28.30
23271;DHT22;11804;51.118;17.058;2023-07-09T11:53:41;32.60;28.20
23271;DHT22;11804;51.118;17.058;2023-07-09T11:56:09;32.30;28.10
23271;DHT22;11804;51.118;17.058;2023-07-09T11:58:36;32.40;28.50
23271;DHT22;11804;51.118;17.058;2023-07-09T12:01:09;32.40;28.70
23271;DHT22;11804;51.118;17.058;2023-07-09T12:03:38;32.40;28.50
23271;DHT22;11804;51.118;17.058;2023-07-09T12:06:28;32.30;28.20
23271;DHT22;11804;51.118;17.058;2023-07-09T12:08:56;32.40;28.30
23271;DHT22;11804;51.118;17.058;2023-07-09T12:11:29;32.50;28.20
23271;DHT22;11804;51.118;17.058;2023-07-09T12:14:11;32.50;27.90
23271;DHT22;11804;51.118;17.058;2023-07-09T12:16:42;32.30;28.20
23271;DHT22;11804;51.118;17.058;2023-07-09T12:19:14;32.30;28.20
23271;DHT22;11804;51.118;17.058;2023-07-09T12:21:48;32.30;28.40
23271;DHT22;11804;51.118;17.058;2023-07-09T12:24:30;32.20;28.00
23271;DHT22;11804;51.118;17.058;2023-07-09T12:27:03;32.20;28.30
23271;DHT22;11804;51.118;17.058;2023-07-09T12:29:37;32.30;28.30
23271;DHT22;11804;51.118;17.058;2023-07-09T12:32:10;32.20;28.20
23271;DHT22;11804;51.118;17.058;2023-07-09T12:34:35;32.00;28.30
23271;DHT22;11804;51.118;17.058;2023-07-09T12:37:03;31.70;29.00
23271;DHT22;11804;51.118;17.058;2023-07-09T12:39:32;31.90;29.30
23271;DHT22;11804;51.118;17.058;2023-07-09T12:42:01;32.10;29.10
23271;DHT22;11804;51.118;17.058;2023-07-09T12:44:33;32.20;29.20
23271;DHT22;11804;51.118;17.058;2023-07-09T12:47:00;32.10;28.20
23271;DHT22;11804;51.118;17.058;2023-07-09T12:49:36;32.10;28.90
23271;DHT22;11804;51.118;17.058;2023-07-09T12:52:02;32.30;28.80
23271;DHT22;11804;51.118;17.058;2023-07-09T12:54:31;32.40;28.80
23271;DHT22;11804;51.118;17.058;2023-07-09T12:57:00;32.50;28.10
23271;DHT22;11804;51.118;17.058;2023-07-09T12:59:38;32.50;28.10
23271;DHT22;11804;51.118;17.058;2023-07-09T13:02:07;32.40;28.20
23271;DHT22;11804;51.118;17.058;2023-07-09T13:04:36;32.40;28.00
23271;DHT22;11804;51.118;17.058;2023-07-09T13:07:04;32.30;28.10
23271;DHT22;11804;51.118;17.058;2023-07-09T13:09:33;32.30;28.60
23271;DHT22;11804;51.118;17.058;2023-07-09T13:12:03;32.30;28.10
23271;DHT22;11804;51.118;17.058;2023-07-09T13:14:31;32.40;27.70
23271;DHT22;11804;51.118;17.058;2023-07-09T13:17:09;32.40;27.80
23271;DHT22;11804;51.118;17.058;2023-07-09T13:19:33;32.40;28.20
23271;DHT22;11804;51.118;17.058;2023-07-09T13:22:01;32.20;27.70
23271;DHT22;11804;51.118;17.058;2023-07-09T13:24:30;32.00;28.20
23271;DHT22;11804;51.118;17.058;2023-07-09T13:27:00;31.90;28.40
23271;DHT22;11804;51.118;17.058;2023-07-09T13:29:30;31.90;28.60
23271;DHT22;11804;51.118;17.058;2023-07-09T13:31:58;31.80;28.40
23271;DHT22;11804;51.118;17.058;2023-07-09T13:34:33;31.90;29.00
23271;DHT22;11804;51.118;17.058;2023-07-09T13:36:58;32.00;28.60
23271;DHT22;11804;51.118;17.058;2023-07-09T13:39:26;32.00;28.50
23271;DHT22;11804;51.118;17.058;2023-07-09T13:41:55;32.00;28.30
23271;DHT22;11804;51.118;17.058;2023-07-09T13:44:28;32.00;28.50
23271;DHT22;11804;51.118;17.058;2023-07-09T13:46:58;32.00;28.40
23271;DHT22;11804;51.118;17.058;2023-07-09T13:49:27;32.00;28.60
23271;DHT22;11804;51.118;17.058;2023-07-09T13:51:57;32.00;28.20
23271;DHT22;11804;51.118;17.058;2023-07-09T13:54:29;31.90;28.30
23271;DHT22;11804;51.118;17.058;2023-07-09T13:57:01;32.00;28.30
23271;DHT22;11804;51.118;17.058;2023-07-09T13:59:29;32.00;28.00
23271;DHT22;11804;51.118;17.058;2023-07-09T14:01:58;32.00;28.10
23271;DHT22;11804;51.118;17.058;2023-07-09T14:04:27;31.90;27.80
23271;DHT22;11804;51.118;17.058;2023-07-09T14:06:55;31.90;27.90
23271;DHT22;11804;51.118;17.058;2023-07-09T14:09:22;31.90;28.10
23271;DHT22;11804;51.118;17.058;2023-07-09T14:11:52;32.00;27.90
23271;DHT22;11804;51.118;17.058;2023-07-09T14:14:22;32.00;27.70
23271;DHT22;11804;51.118;17.058;2023-07-09T14:16:51;32.00;27.30
23271;DHT22;11804;51.118;17.058;2023-07-09T14:19:21;31.90;27.80
23271;DHT22;11804;51.118;17.058;2023-07-09T14:21:50;31.90;27.90
23271;DHT22;11804;51.118;17.058;2023-07-09T14:24:22;31.80;27.70
23271;DHT22;11804;51.118;17.058;2023-07-09T14:26:51;31.80;27.80
23271;DHT22;11804;51.118;17.058;2023-07-09T14:29:20;31.80;27.50
23271;DHT22;11804;51.118;17.058;2023-07-09T14:31:49;31.80;27.50
23271;DHT22;11804;51.118;17.058;2023-07-09T14:34:28;31.70;27.50
23271;DHT22;11804;51.118;17.058;2023-07-09T14:36:57;31.70;27.40
23271;DHT22;11804;51.118;17.058;2023-07-09T14:39:27;31.80;27.40
23271;DHT22;11804;51.118;17.058;2023-07-09T14:41:56;31.60;26.90
23271;DHT22;11804;51.118;17.058;2023-07-09T14:44:28;31.50;27.10
23271;DHT22;11804;51.118;17.058;2023-07-09T14:46:59;31.40;27.80
23271;DHT22;11804;51.118;17.058;2023-07-09T14:49:28;31.60;27.70
23271;DHT22;11804;51.118;17.058;2023-07-09T14:51:55;31.60;27.70
23271;DHT22;11804;51.118;17.058;2023-07-09T14:54:26;31.60;26.90
23271;DHT22;11804;51.118;17.058;2023-07-09T14:56:56;31.50;26.60
23271;DHT22;11804;51.118;17.058;2023-07-09T14:59:24;31.60;26.90
23271;DHT22;11804;51.118;17.058;2023-07-09T15:01:53;31.60;26.90
23271;DHT22;11804;51.118;17.058;2023-07-09T15:04:29;31.70;27.10
23271;DHT22;11804;51.118;17.058;2023-07-09T15:06:59;31.60;26.70
23271;DHT22;11804;51.118;17.058;2023-07-09T15:09:28;31.60;26.80
23271;DHT22;11804;51.118;17.058;2023-07-09T15:11:57;31.70;26.60
23271;DHT22;11804;51.118;17.058;2023-07-09T15:14:26;31.70;26.80
23271;DHT22;11804;51.118;17.058;2023-07-09T15:16:55;31.60;27.00
23271;DHT22;11804;51.118;17.058;2023-07-09T15:19:24;31.70;26.70
23271;DHT22;11804;51.118;17.058;2023-07-09T15:21:52;31.70;26.50
23271;DHT22;11804;51.118;17.058;2023-07-09T15:24:22;31.70;26.40
23271;DHT22;11804;51.118;17.058;2023-07-09T15:26:53;31.70;26.50
23271;DHT22;11804;51.118;17.058;2023-07-09T15:29:21;31.60;25.80
23271;DHT22;11804;51.118;17.058;2023-07-09T15:31:49;31.60;25.60
23271;DHT22;11804;51.118;17.058;2023-07-09T15:34:17;31.60;25.90
23271;DHT22;11804;51.118;17.058;2023-07-09T15:36:50;31.50;25.70
23271;DHT22;11804;51.118;17.058;2023-07-09T15:39:19;31.50;25.80
23271;DHT22;11804;51.118;17.058;2023-07-09T15:41:47;31.50;26.10
23271;DHT22;11804;51.118;17.058;2023-07-09T15:44:16;31.50;26.00
23271;DHT22;11804;51.118;17.058;2023-07-09T15:46:55;31.60;25.70
23271;DHT22;11804;51.118;17.058;2023-07-09T15:49:23;31.40;25.60
23271;DHT22;11804;51.118;17.058;2023-07-09T15:51:51;31.40;25.40
23271;DHT22;11804;51.118;17.058;2023-07-09T15:54:20;31.40;25.60
23271;DHT22;11804;51.118;17.058;2023-07-09T15:56:50;31.40;25.40
23271;DHT22;11804;51.118;17.058;2023-07-09T15:59:30;31.50;25.60
23271;DHT22;11804;51.118;17.058;2023-07-09T16:02:00;31.50;25.70
23271;DHT22;11804;51.118;17.058;2023-07-09T16:04:28;31.40;25.50